Aktualne dane pomiarowe

Uwaga, wersja testowa! Automatyczne pobieranie danych za pomocą narzędzi lub skryptów to umożliwiających jest zabronione.

Dane meteo z obszaru Polski uzyskane na podstawie depesz SYNOP pobieranych co godzinę z NWS. Najedź myszką na symbol przedstawiony w tabeli, aby uzyskać informacje co do jego znaczenia. Prosimy pamiętać, że to testowa wersja strony, która jeszcze nie jest ukończona. Stworzono również jest krótki FAQ dotyczący korzystania z tej podstrony Anomalie temperatury w chwili obecnej odniesione są do okresu referencyjnego 1951-2016. Okres ten będzie później zmieniony na 1981-2010. Kliknij ikonę aby pobrać plik CSV. Kliknij ikonę aby wygenerować mapę synoptyczną dla danego terminu.

Wybierz Datę:    

        

Świdwin (12212)

Dane terminowe dla wybranej stacji. Kliknij datę, aby otrzymać dane z tego terminu dla wszystkich stacji.

TemperaturaZachmurzenieWiatrCiśnienieOpadyPogoda
 Data t td wb tx tn tg rh  Nt Nl Cl Cm Ch ws wd g1 g2 wx mslp ppp ch 24h 12h t ww ww w1 w2  
2019-07-12 23:00:00 12.6 11.0 11.5--- 9010.0wx-wx1----1010.2 996.3 0.0---------
2019-07-12 22:00:00 14.0 11.3 12.2--- 8410.0wx-wx1----1010.2 996.4 0.4---------
2019-07-12 21:00:00 14.4 11.0 12.2--- 8010.0wx-wx1----1010.2 996.5 0.7---------
2019-07-12 20:00:00 16.0 11.0 12.8--- 7210.0wx-wx1----1010.0 996.4 0.4---------
2019-07-12 19:00:00 18.9 11.4 14.2--- 6210.0wx-wx2wx---1009.6 996.1 0.1---------
2019-07-12 18:00:00 19.7 12.0 14.9--- 6110.0wx-wx3wx---1009.2 995.8 -0.3---------
2019-07-12 17:00:00 20.5 10.3 14.4--- 5210.0wxwxwxwx3wx---1009.4 995.9 0.5---------
2019-07-12 16:00:00 19.6 11.1 14.4--- 5810.0wxwxwxwx4wx---1009.5 995.9 0.4---------
2019-07-12 15:00:00 19.9 10.1 14.0--- 5310.0wxwxwxwx5wx---1009.6 996.1 0.1---------
2019-07-12 14:00:00 25.0 8.5 15.5--- 3510.0wxwxwxwx1----1008.7 995.4 -0.8---------
2019-07-12 13:00:00 23.2 8.9 14.9--- 4010.0wxwxwxwx1----1008.9 995.6 -0.9---------
2019-07-12 12:00:00 23.2 8.1 14.6--- 3810.0wxwxwxwx1----1009.3 995.9 -0.6---------
2019-07-12 11:00:00 23.2 8.5 14.8--- 3910.0wxwxwxwx1----1009.6 996.3 -0.5---------
2019-07-12 10:00:00 22.3 7.7 14.0--- 3910.0wxwxwxwx1----1009.9 996.4 -0.4---------
2019-07-12 09:00:00 22.1 10.0 15.0--- 4610.0wxwxwxwx1----1010.0 996.6 -0.3---------
2019-07-12 08:00:00 21.6 9.8 14.7--- 4710.0wx-wx1----1010.2 996.8 -0.1---------
2019-07-12 07:00:00 19.4 8.1 12.9--- 4810.0wx-wx1----1010.4 996.8 0.1---------
2019-07-12 06:00:00 17.7 9.9 13.0--- 6010.0wx-wx1----1010.5 996.4 -0.1---------
2019-07-12 05:00:00 14.7 12.3 13.1--- 8610.0wx-wx1----1010.6 996.4 -0.2---------
2019-07-12 04:00:00 10.3 9.2 9.5--- 9310.0wx-wx1----1010.8 996.4 -0.5---------
2019-07-12 03:00:00 8.3 7.8 7.9--- 9710.0wx-1----1011.0 996.5 -0.7---wx---
2019-07-12 02:00:00 8.4 8.2 8.2--- 9910.0wx-1----1011.1 996.6 -0.8---------
2019-07-12 01:00:00 9.2 8.4 8.6--- 9510.0wx-1----1011.4 996.9 -0.7---------
2019-07-12 00:00:00 9.4 8.5 8.7--- 9410.0wx-1----1011.7 997.2 -0.4---------
2019-07-11 23:00:00 10.3 9.2 9.5--- 9310.0wx-1----1011.9 997.4 -0.3---------
2019-07-11 22:00:00 11.4 9.2 9.9--- 8610.0wx-1----1012.0 997.6 0.0---------
2019-07-11 21:00:00 12.6 9.2 10.4--- 8010.0wx-1----1011.9 997.6 0.1---------
2019-07-11 20:00:00 14.2 8.5 10.7--- 6910.0wx-1----1012.0 997.7 0.2---------
2019-07-11 19:00:00 17.7 8.4 12.3--- 5410.0wx-wx2wx---1011.7 997.6 -0.1---------
2019-07-11 18:00:00 18.9 8.0 12.6--- 4910.0wx-wx2wx---1011.5 997.5 -0.3---------
2019-07-11 17:00:00 20.0 6.4 12.5--- 4110.0wxwxwxwx3wx---1011.5 997.5 -0.3---------
2019-07-11 16:00:00 20.4 8.4 13.5--- 4610.0wxwxwxwx4wx---1011.7 997.7 -0.3---------
2019-07-11 15:00:00 20.7 8.1 13.5--- 4410.0wxwxwxwx4wx---1011.7 997.8 -0.3---------
2019-07-11 14:00:00 21.2 10.3 14.7--- 5010.0wxwxwx4wx---1011.7 997.8 -0.5---------
2019-07-11 13:00:00 21.2 10.2 14.7--- 4910.0wxwxwx6wx---1011.9 998.0 -0.6---------
2019-07-11 12:00:00 21.3 10.9 15.0--- 5210.0wxwxwx5wx---1012.0 998.1 -0.5---------
2019-07-11 11:00:00 19.8 11.9 14.9--- 6010.0wxwxwx5wx---1012.2 998.3 -0.3---------
2019-07-11 10:00:00 19.8 11.5 14.7--- 5910.0wxwxwx4wx---1012.6 998.6 0.0---------
2019-07-11 09:00:00 20.0 11.6 14.8--- 5810.0wxwxwx2wx---1012.6 998.6 0.0---------
2019-07-11 08:00:00 18.0 14.1 15.4--- 7810.0wxwxwx3wx---1012.6 998.6 0.1---------
2019-07-11 07:00:00 16.9 13.4 14.5--- 8010.0wxwxwx3wx---1012.7 998.6 0.3---------
2019-07-11 06:00:00 15.7 13.4 14.1--- 8610.0wx-3wx---1012.8 998.6 0.3---------
2019-07-11 05:00:00 13.8 12.5 12.9--- 9210.0wx-3wx---1012.8 998.5 0.0---------
2019-07-11 04:00:00 11.6 11.4 11.4--- 9910.0wx-1wx---1012.7 998.3 -0.5---wx---
2019-07-11 03:00:00 10.6 10.3 10.3--- 985.0wx-1wx---1012.7 998.3 -0.6---wx---
1.1 ms

 

Print Friendly, PDF & Email